createdAt,value
2022-11-27T00:07:28.576Z,0
2022-11-27T00:12:48.147Z,0
2022-11-27T00:23:26.996Z,0
2022-11-27T00:28:46.132Z,0
2022-11-27T00:39:25.237Z,0
2022-11-27T00:50:03.140Z,0
2022-11-27T00:55:23.485Z,0
2022-11-27T01:06:01.610Z,0
2022-11-27T01:11:20.524Z,0
2022-11-27T01:21:59.233Z,0
2022-11-27T01:32:38.287Z,0
2022-11-27T01:37:57.953Z,0
2022-11-27T01:48:36.412Z,0
2022-11-27T01:53:55.866Z,0
2022-11-27T01:59:15.651Z,0
2022-11-27T02:04:34.645Z,0
2022-11-27T02:20:33.007Z,0
2022-11-27T02:31:12.563Z,0
2022-11-27T02:47:10.362Z,0
2022-11-27T03:03:07.318Z,0
2022-11-27T03:13:46.996Z,0
2022-11-27T03:19:06.619Z,0
2022-11-27T03:29:44.447Z,0
2022-11-27T03:35:04.024Z,0
2022-11-27T03:40:23.832Z,0
2022-11-27T03:51:01.598Z,0
2022-11-27T03:56:20.979Z,0
2022-11-27T04:06:59.910Z,0
2022-11-27T04:22:58.572Z,0
2022-11-27T04:33:37.222Z,0
2022-11-27T04:38:56.312Z,0
2022-11-27T04:49:35.540Z,0
2022-11-27T05:05:33.565Z,0
2022-11-27T05:16:12.921Z,0
2022-11-27T05:21:31.936Z,0
2022-11-27T05:32:11.024Z,0
2022-11-27T05:48:10.019Z,0
2022-11-27T06:04:08.591Z,0
2022-11-27T06:14:47.318Z,0
2022-11-27T06:20:06.655Z,0
2022-11-27T06:30:44.841Z,0
2022-11-27T06:46:43.440Z,11
2022-11-27T06:57:22.421Z,19.9
2022-11-27T07:02:41.797Z,21.58
2022-11-27T07:13:21.277Z,22.41
2022-11-27T07:29:18.997Z,27.01
2022-11-27T07:40:02.254Z,26.88
2022-11-27T07:45:16.834Z,28.89
2022-11-27T07:55:55.584Z,39.08
2022-11-27T08:01:15.571Z,37.68
2022-11-27T08:11:53.108Z,46.43
2022-11-27T08:27:51.009Z,61.7
2022-11-27T08:33:10.363Z,60.45
2022-11-27T08:38:29.447Z,68.79
2022-11-27T08:54:27.557Z,114.66
2022-11-27T09:05:06.291Z,79.52
2022-11-27T09:10:25.921Z,75.87
2022-11-27T09:17:00.185Z,82.7
2022-11-27T09:21:05.193Z,95.77
2022-11-27T09:26:24.647Z,129.21
2022-11-27T09:37:04.102Z,133.26
2022-11-27T09:42:23.034Z,169.95
2022-11-27T09:47:42.491Z,134.79
2022-11-27T09:53:01.902Z,143.21
2022-11-27T10:03:40.563Z,125.39
2022-11-27T10:14:19.158Z,142.39
2022-11-27T10:24:57.930Z,178.03
2022-11-27T10:30:17.509Z,175.95
2022-11-27T10:40:56.496Z,152.28
2022-11-27T10:46:15.831Z,219.37
2022-11-27T10:56:53.800Z,265.2
2022-11-27T11:02:12.061Z,213.09
2022-11-27T11:12:50.296Z,142.34
2022-11-27T11:28:47.841Z,143.26
2022-11-27T11:34:07.197Z,159.5
2022-11-27T11:39:27.647Z,174.19
2022-11-27T11:55:24.726Z,235.01
2022-11-27T12:01:04.622Z,218.56
2022-11-27T12:06:03.772Z,263.29
2022-11-27T12:11:23.525Z,216.94
2022-11-27T12:22:02.025Z,173.47
2022-11-27T12:27:21.405Z,170.84
2022-11-27T12:37:59.419Z,201.97
2022-11-27T12:43:18.335Z,314.4
2022-11-27T12:54:22.848Z,255.31
2022-11-27T13:20:59.741Z,156.19
2022-11-27T13:26:21.958Z,131.8
2022-11-27T13:36:56.646Z,150.56
2022-11-27T13:42:16.545Z,116.48
2022-11-27T13:52:54.085Z,78.78
2022-11-27T14:08:51.510Z,80.17
2022-11-27T14:19:33.747Z,75.6
2022-11-27T14:24:48.905Z,67.46
2022-11-27T14:35:27.503Z,48.04
2022-11-27T14:51:25.666Z,28.33
2022-11-27T15:02:03.909Z,22.84
2022-11-27T15:07:23.155Z,24.62
2022-11-27T15:18:01.751Z,20.35
2022-11-27T15:34:00.223Z,5
2022-11-27T15:44:39.175Z,0
2022-11-27T15:49:58.668Z,0
2022-11-27T16:00:37.908Z,0
2022-11-27T16:05:57.059Z,0
2022-11-27T16:11:15.788Z,0
2022-11-27T16:16:34.809Z,0
2022-11-27T16:32:32.803Z,0
2022-11-27T16:43:11.355Z,0
2022-11-27T17:04:28.146Z,0
2022-11-27T17:09:47.782Z,0
2022-11-27T17:20:26.393Z,0
2022-11-27T17:25:45.561Z,0
2022-11-27T17:36:24.317Z,0
2022-11-27T17:41:43.205Z,0
2022-11-27T17:52:21.848Z,0
2022-11-27T18:03:03.412Z,0
2022-11-27T18:18:57.908Z,0
2022-11-27T18:34:56.855Z,0
2022-11-27T18:45:35.133Z,0
2022-11-27T18:50:53.879Z,0
2022-11-27T18:56:12.718Z,0
2022-11-27T19:01:35.540Z,0
2022-11-27T19:17:32.394Z,0
2022-11-27T19:22:49.616Z,0
2022-11-27T19:33:27.238Z,0
2022-11-27T19:38:46.101Z,0
2022-11-27T19:44:05.203Z,0
2022-11-27T20:00:03.289Z,0
2022-11-27T20:16:00.961Z,0
2022-11-27T20:26:42.725Z,0
2022-11-27T20:42:36.458Z,0
2022-11-27T20:48:05.325Z,0
2022-11-27T20:58:34.497Z,0
2022-11-27T21:09:13.122Z,0
2022-11-27T21:14:31.426Z,0
2022-11-27T21:19:50.512Z,0
2022-11-27T21:25:09.352Z,0
2022-11-27T21:30:28.307Z,0
2022-11-27T21:41:07.240Z,0
2022-11-27T21:51:45.693Z,0
2022-11-27T21:57:03.945Z,0
2022-11-27T22:07:41.989Z,0
2022-11-27T22:18:20.889Z,0
2022-11-27T22:23:41.404Z,0
2022-11-27T22:34:19.231Z,0
2022-11-27T22:39:38.424Z,0
2022-11-27T22:50:16.912Z,0
2022-11-27T23:06:15.288Z,0
2022-11-27T23:16:53.684Z,0
2022-11-27T23:22:12.717Z,0
2022-11-27T23:32:50.786Z,0
2022-11-27T23:54:07.931Z,0
2022-11-27T23:59:26.524Z,0
